Terminal Aerodrome Forecast
Issued by NWS

Home | Current Version | Previous Version | Text Only | Print | Product List | Glossary On
Versions: 1 2 3 4 5 6 7 8 9 10 11 12 13 14 15 16
000
FTUS41 KBTV 262338
TAFMSS
TAF
KMSS 262338Z 2700/2724 01004KT P6SM VCSH SCT020 OVC035
      TEMPO 2700/2702 -SHRA SCT008 BKN020 OVC035
     FM270200 VRB03KT P6SM VCSH SCT020 OVC035
     FM270800 00000KT 2SM BR BKN009
     FM271200 VRB03KT P6SM SCT020 BKN035
     FM271600 35004KT P6SM SCT045=

USA.gov is the U.S. government's official web portal to all federal, state and local government web resources and services.